Time;durP1;ratioP1;P1;durP2;ratioP2;P2;SDS_P1;SDS_P2;PMS_P1;PMS_P2;Temp;Humidity;BMP_temperature;BMP_pressure;BME280_temperature;BME280_humidity;BME280_pressure;Samples;Min_cycle;Max_cycle;Signal;HPM_P1;HPM_P2
2023/02/27 00:01:00;;;;;;;3.63;2.28;;;-1.90;99.90;;;;;;5036638;28;20094;-56
2023/02/27 00:03:26;;;;;;;4.75;2.50;;;-1.90;99.90;;;;;;5036051;28;20035;-55
2023/02/27 00:05:52;;;;;;;3.55;2.00;;;-1.90;99.90;;;;;;5037093;28;20104;-57
2023/02/27 00:08:17;;;;;;;3.88;2.38;;;-1.90;99.90;;;;;;5038064;28;20025;-57
2023/02/27 00:10:43;;;;;;;4.90;3.00;;;-1.90;99.90;;;;;;5038217;28;20540;-57
2023/02/27 00:13:09;;;;;;;3.47;2.45;;;-1.90;99.90;;;;;;5037113;28;20029;-57
2023/02/27 00:15:36;;;;;;;4.18;2.42;;;-1.90;99.90;;;;;;5038460;28;20028;-57
2023/02/27 00:18:01;;;;;;;9.85;3.35;;;-1.80;99.90;;;;;;5038308;28;20120;-53
2023/02/27 00:20:31;;;;;;;8.25;2.80;;;-1.80;99.90;;;;;;5038155;28;20473;-53
2023/02/27 00:22:56;;;;;;;4.20;2.53;;;-1.80;99.90;;;;;;5036224;28;20017;-55
2023/02/27 00:25:22;;;;;;;4.78;2.63;;;-1.90;99.90;;;;;;5037415;28;20040;-57
2023/02/27 00:27:47;;;;;;;4.45;2.30;;;-1.90;99.90;;;;;;5036062;28;20028;-56
2023/02/27 00:30:14;;;;;;;3.72;2.45;;;-1.80;99.90;;;;;;5037844;28;20115;-57
2023/02/27 00:32:41;;;;;;;6.80;2.85;;;-1.80;99.90;;;;;;5035802;28;20411;-52
2023/02/27 00:35:09;;;;;;;7.30;2.90;;;-1.80;99.90;;;;;;5037288;28;20053;-53
2023/02/27 00:37:35;;;;;;;5.43;2.33;;;-1.80;99.90;;;;;;5036441;28;20033;-56
2023/02/27 00:40:03;;;;;;;4.97;2.22;;;-1.80;99.90;;;;;;5036597;28;20049;-57
2023/02/27 00:42:30;;;;;;;3.95;2.45;;;-1.80;99.90;;;;;;5037215;28;20017;-55
2023/02/27 00:44:55;;;;;;;4.30;2.03;;;-1.80;99.90;;;;;;5036750;28;20390;-57
2023/02/27 00:47:21;;;;;;;7.72;2.45;;;-1.80;99.90;;;;;;5038243;28;20084;-54
2023/02/27 00:49:46;;;;;;;5.15;2.58;;;-1.90;99.90;;;;;;5037617;28;20368;-55
2023/02/27 00:52:12;;;;;;;3.72;1.92;;;-1.90;99.90;;;;;;5036662;28;20036;-55
2023/02/27 00:54:37;;;;;;;5.78;2.38;;;-1.90;99.90;;;;;;5036551;28;20080;-55
2023/02/27 00:57:03;;;;;;;3.58;2.22;;;-1.90;99.90;;;;;;5037695;28;20033;-57
2023/02/27 00:59:29;;;;;;;5.85;2.53;;;-2.00;99.90;;;;;;5037887;28;20087;-54
2023/02/27 01:01:54;;;;;;;4.60;2.33;;;-2.00;99.90;;;;;;5036484;28;20025;-51
2023/02/27 01:04:20;;;;;;;3.38;2.28;;;-2.00;99.90;;;;;;5037822;28;20564;-55
2023/02/27 01:06:46;;;;;;;4.82;2.45;;;-2.10;99.90;;;;;;5037258;28;20121;-55
2023/02/27 01:09:11;;;;;;;6.10;2.05;;;-2.10;99.90;;;;;;5035617;28;20021;-56
2023/02/27 01:11:37;;;;;;;5.45;2.85;;;-2.10;99.90;;;;;;5037618;28;20182;-55
2023/02/27 01:14:03;;;;;;;4.60;2.03;;;-2.20;99.90;;;;;;5037046;28;20029;-55
2023/02/27 01:16:29;;;;;;;3.90;2.13;;;-2.20;99.90;;;;;;5036800;28;20026;-55
2023/02/27 01:18:54;;;;;;;3.88;2.05;;;-2.30;99.90;;;;;;5037186;28;20184;-52
2023/02/27 01:21:20;;;;;;;3.35;2.33;;;-2.30;99.90;;;;;;5035166;28;20037;-53
2023/02/27 01:23:46;;;;;;;4.18;2.22;;;-2.30;99.90;;;;;;5036017;28;20038;-53
2023/02/27 01:26:12;;;;;;;4.38;1.95;;;-2.40;99.90;;;;;;5037004;28;20056;-54
2023/02/27 01:28:37;;;;;;;4.40;2.20;;;-2.40;99.90;;;;;;5036317;28;20033;-56
2023/02/27 01:31:03;;;;;;;4.15;2.50;;;-2.40;99.90;;;;;;5037626;28;20030;-52
2023/02/27 01:33:29;;;;;;;2.65;2.08;;;-2.40;99.90;;;;;;5037835;28;20179;-54
2023/02/27 01:35:54;;;;;;;4.65;2.10;;;-2.40;99.90;;;;;;5038167;28;20022;-53
2023/02/27 01:38:20;;;;;;;4.65;2.25;;;-2.50;99.90;;;;;;5037538;28;20032;-51
2023/02/27 01:40:45;;;;;;;4.18;2.53;;;-2.50;99.90;;;;;;5036557;28;20048;-53
2023/02/27 01:43:17;;;;;;;2.90;2.22;;;-2.50;99.90;;;;;;5034514;28;20039;-55
2023/02/27 01:45:47;;;;;;;4.53;2.50;;;-2.50;99.90;;;;;;5036023;28;20021;-55
2023/02/27 01:48:32;;;;;;;4.00;2.30;;;-2.50;99.90;;;;;;5033338;28;20111;-53
2023/02/27 01:51:07;;;;;;;4.47;2.45;;;-2.50;99.90;;;;;;5035113;28;20481;-56
2023/02/27 01:53:35;;;;;;;3.97;2.10;;;-2.50;99.90;;;;;;5036509;28;20033;-55
2023/02/27 01:56:15;;;;;;;4.25;2.22;;;-2.60;99.90;;;;;;5037714;28;20058;-55
2023/02/27 01:58:42;;;;;;;4.43;2.20;;;-2.60;99.90;;;;;;5035390;28;20033;-55
2023/02/27 02:01:07;;;;;;;3.13;2.20;;;-2.60;99.90;;;;;;5037832;28;20637;-54
2023/02/27 02:03:54;;;;;;;5.78;2.60;;;-2.70;99.90;;;;;;5035983;28;20481;-52
2023/02/27 02:06:20;;;;;;;6.20;2.30;;;-2.70;99.90;;;;;;5039528;28;20029;-53
2023/02/27 02:08:49;;;;;;;5.10;1.90;;;-2.80;99.90;;;;;;5040734;28;20030;-57
2023/02/27 02:11:17;;;;;;;3.67;2.45;;;-2.80;99.90;;;;;;5040065;28;20543;-55
2023/02/27 02:13:43;;;;;;;2.75;2.38;;;-2.80;99.90;;;;;;5040438;28;20029;-53
2023/02/27 02:16:36;;;;;;;2.90;2.10;;;-2.80;99.90;;;;;;5037408;28;20041;-51
2023/02/27 02:19:20;;;;;;;3.20;2.03;;;-2.90;99.90;;;;;;5038497;28;20159;-52
2023/02/27 02:22:18;;;;;;;2.58;2.17;;;-2.90;99.90;;;;;;5038878;28;20052;-54
2023/02/27 02:24:59;;;;;;;4.80;2.13;;;-2.90;99.90;;;;;;5018963;28;20045;-56
2023/02/27 02:27:53;;;;;;;3.50;2.00;;;-3.00;99.90;;;;;;5039226;28;20080;-57
2023/02/27 02:30:56;;;;;;;3.80;2.42;;;-3.00;99.90;;;;;;5040496;28;20029;-57
2023/02/27 02:33:37;;;;;;;4.93;2.15;;;-3.00;99.90;;;;;;5039748;28;20099;-57
2023/02/27 02:36:27;;;;;;;5.25;2.58;;;-3.00;99.90;;;;;;5039423;28;20105;-55
2023/02/27 02:38:58;;;;;;;2.95;2.53;;;-3.10;99.90;;;;;;5038200;28;20184;-55
2023/02/27 02:41:47;;;;;;;3.97;2.38;;;-3.10;99.90;;;;;;5039520;28;20147;-54
2023/02/27 02:44:43;;;;;;;4.90;2.67;;;-3.10;99.90;;;;;;5040597;28;20387;-53
2023/02/27 02:47:38;;;;;;;6.75;2.50;;;-3.10;99.90;;;;;;5039262;28;20032;-57
2023/02/27 02:50:27;;;;;;;3.53;2.67;;;-3.10;99.90;;;;;;5037645;28;20079;-51
2023/02/27 02:53:20;;;;;;;5.22;2.20;;;-3.10;99.90;;;;;;5036258;28;20171;-54
2023/02/27 02:55:49;;;;;;;5.40;2.50;;;-3.10;99.90;;;;;;5039783;28;20036;-55
2023/02/27 02:58:28;;;;;;;4.80;2.55;;;-3.20;99.90;;;;;;5037660;28;20030;-54
2023/02/27 03:01:04;;;;;;;5.30;2.53;;;-3.20;99.90;;;;;;5037837;28;20053;-57
2023/02/27 03:03:42;;;;;;;4.38;2.30;;;-3.20;99.90;;;;;;5038509;28;20028;-56
2023/02/27 03:06:13;;;;;;;3.70;2.58;;;-3.20;99.90;;;;;;5037966;28;20507;-56
2023/02/27 03:08:48;;;;;;;6.90;2.97;;;-3.20;99.90;;;;;;5038364;28;20067;-53
2023/02/27 03:11:14;;;;;;;3.80;2.53;;;-3.20;99.90;;;;;;5038637;28;20380;-54
2023/02/27 03:13:50;;;;;;;4.07;2.72;;;-3.20;99.90;;;;;;5038548;28;20153;-54
2023/02/27 03:16:25;;;;;;;3.38;2.30;;;-3.20;99.90;;;;;;5039753;28;20033;-55
2023/02/27 03:19:03;;;;;;;4.60;2.67;;;-3.20;99.90;;;;;;5038369;28;20502;-57
2023/02/27 03:21:55;;;;;;;5.47;2.83;;;-3.20;99.90;;;;;;5040899;28;20037;-55
2023/02/27 03:24:43;;;;;;;6.50;2.83;;;-3.30;99.90;;;;;;5040110;28;20487;-53
2023/02/27 03:27:09;;;;;;;7.13;3.20;;;-3.30;99.90;;;;;;5039300;28;20037;-56
2023/02/27 03:29:38;;;;;;;6.03;2.78;;;-3.30;99.90;;;;;;5037475;28;20025;-55
2023/02/27 03:32:17;;;;;;;3.65;2.85;;;-3.20;99.90;;;;;;5038079;28;20053;-55
2023/02/27 03:34:43;;;;;;;3.15;2.35;;;-3.20;99.90;;;;;;5035847;28;20041;-54
2023/02/27 03:37:28;;;;;;;6.28;2.88;;;-3.20;99.90;;;;;;5037912;28;20503;-52
2023/02/27 03:40:05;;;;;;;5.80;2.80;;;-3.20;99.90;;;;;;5038837;28;20097;-53
2023/02/27 03:42:41;;;;;;;3.33;2.65;;;-3.20;99.90;;;;;;5037792;28;20112;-52
2023/02/27 03:45:20;;;;;;;3.83;2.67;;;-3.30;99.90;;;;;;5037303;28;20492;-53
2023/02/27 03:47:46;;;;;;;7.60;3.40;;;-3.30;99.90;;;;;;5037841;28;20028;-54
2023/02/27 03:50:11;;;;;;;5.38;2.70;;;-3.30;99.90;;;;;;5037256;28;20035;-55
2023/02/27 03:52:38;;;;;;;4.63;2.83;;;-3.30;99.90;;;;;;5036616;28;20061;-56
2023/02/27 03:55:07;;;;;;;6.47;3.17;;;-3.30;99.90;;;;;;5037629;28;20060;-55
2023/02/27 03:57:34;;;;;;;4.55;3.10;;;-3.40;99.90;;;;;;5038184;28;20036;-55
2023/02/27 04:00:00;;;;;;;5.32;3.05;;;-3.40;99.90;;;;;;5034941;28;20136;-51
2023/02/27 04:02:27;;;;;;;5.53;3.42;;;-3.30;99.90;;;;;;5037215;28;20032;-57
2023/02/27 04:04:52;;;;;;;5.50;3.45;;;-3.30;99.90;;;;;;5037775;28;20022;-52
2023/02/27 04:07:47;;;;;;;5.90;3.60;;;-3.30;99.90;;;;;;5037710;28;20070;-55
2023/02/27 04:10:39;;;;;;;5.55;3.30;;;-3.20;99.90;;;;;;5037995;28;20017;-52
2023/02/27 04:13:08;;;;;;;3.85;2.92;;;-3.30;99.90;;;;;;5037598;28;20038;-55
2023/02/27 04:16:10;;;;;;;5.63;2.97;;;-3.30;99.90;;;;;;5037924;28;20097;-53
2023/02/27 04:18:39;;;;;;;3.90;2.90;;;-3.30;99.90;;;;;;5038655;28;20403;-55
2023/02/27 04:21:18;;;;;;;9.38;3.60;;;-3.30;99.90;;;;;;5038467;28;20629;-53
2023/02/27 04:24:09;;;;;;;5.00;2.80;;;-3.30;99.90;;;;;;5037900;28;20025;-51
2023/02/27 04:26:50;;;;;;;6.22;3.33;;;-3.30;99.90;;;;;;5038197;28;20032;-53
2023/02/27 04:29:20;;;;;;;6.53;3.42;;;-3.30;99.90;;;;;;5037574;28;20013;-52
2023/02/27 04:32:01;;;;;;;6.28;3.67;;;-3.30;99.90;;;;;;5038191;28;20026;-54
2023/02/27 04:34:29;;;;;;;7.10;3.63;;;-3.20;99.90;;;;;;5036847;28;20049;-54
2023/02/27 04:36:57;;;;;;;6.97;4.00;;;-3.20;99.90;;;;;;5036233;28;20108;-55
2023/02/27 04:39:31;;;;;;;6.32;4.05;;;-3.20;99.90;;;;;;5036665;28;20032;-53
2023/02/27 04:42:04;;;;;;;5.07;3.85;;;-3.20;99.90;;;;;;5036973;28;20057;-54
2023/02/27 04:44:33;;;;;;;6.28;3.80;;;-3.20;99.90;;;;;;5037807;28;20032;-55
2023/02/27 04:47:00;;;;;;;7.20;4.43;;;-3.10;99.90;;;;;;5036175;28;20033;-55
2023/02/27 04:49:49;;;;;;;6.47;3.88;;;-3.10;99.90;;;;;;5037216;28;20022;-56
2023/02/27 04:52:28;;;;;;;6.05;3.63;;;-3.10;99.90;;;;;;5037636;28;20088;-57
2023/02/27 04:55:00;;;;;;;5.95;3.80;;;-3.10;99.90;;;;;;5037712;28;20021;-56
2023/02/27 04:57:33;;;;;;;5.53;3.80;;;-3.10;99.90;;;;;;5036445;28;20037;-50
2023/02/27 05:00:04;;;;;;;7.65;4.18;;;-3.20;99.90;;;;;;5036543;28;20484;-54
2023/02/27 05:02:34;;;;;;;7.80;3.97;;;-3.10;99.90;;;;;;5033826;28;20064;-56
2023/02/27 05:05:06;;;;;;;5.53;4.20;;;-3.10;99.90;;;;;;5037473;28;20025;-52
2023/02/27 05:07:38;;;;;;;9.35;4.38;;;-3.10;99.90;;;;;;5036914;28;20033;-52
2023/02/27 05:10:29;;;;;;;5.43;3.80;;;-3.10;99.90;;;;;;5037400;28;20041;-54
2023/02/27 05:13:05;;;;;;;6.10;3.85;;;-3.10;99.90;;;;;;5033996;28;20503;-50
2023/02/27 05:15:57;;;;;;;8.40;4.40;;;-3.10;99.90;;;;;;5037941;28;20025;-54
2023/02/27 05:18:23;;;;;;;6.93;3.95;;;-3.10;99.90;;;;;;5038135;28;20067;-55
2023/02/27 05:21:23;;;;;;;9.10;3.95;;;-3.10;99.90;;;;;;5037079;28;20028;-52
2023/02/27 05:24:15;;;;;;;5.63;4.75;;;-3.00;99.90;;;;;;5036327;28;20164;-55
2023/02/27 05:26:57;;;;;;;7.38;4.57;;;-3.00;99.90;;;;;;5037678;28;20025;-56
2023/02/27 05:29:43;;;;;;;11.23;4.63;;;-3.00;99.90;;;;;;5036821;28;20035;-52
2023/02/27 05:32:12;;;;;;;;;;;-2.90;99.90;;;;;;5037563;28;20025;-55
2023/02/27 05:35:07;;;;;;;8.32;4.20;;;-2.90;99.90;;;;;;5037390;28;19925;-55
2023/02/27 05:37:45;;;;;;;7.70;4.43;;;-2.90;99.90;;;;;;5056829;28;20040;-54
2023/02/27 05:40:15;;;;;;;6.63;4.85;;;-2.90;99.90;;;;;;5038874;28;20037;-52
2023/02/27 05:42:51;;;;;;;10.65;4.43;;;-2.90;99.90;;;;;;5041026;28;20040;-56
2023/02/27 05:45:21;;;;;;;9.23;5.43;;;-2.90;99.90;;;;;;5041398;28;20028;-53
2023/02/27 05:48:14;;;;;;;6.88;4.43;;;-2.90;99.90;;;;;;5040725;28;20059;-54
2023/02/27 05:50:41;;;;;;;6.30;4.68;;;-2.90;99.90;;;;;;5035031;28;20076;-55
2023/02/27 05:53:10;;;;;;;6.60;4.70;;;-2.90;99.90;;;;;;5037553;28;20519;-56
2023/02/27 05:55:42;;;;;;;8.48;5.22;;;-2.90;99.90;;;;;;5040805;28;20035;-51
2023/02/27 05:58:25;;;;;;;6.35;4.65;;;-3.00;99.90;;;;;;5039463;28;20053;-54
2023/02/27 06:01:04;;;;;;;7.22;4.70;;;-3.00;99.90;;;;;;5039359;28;20482;-50
2023/02/27 06:03:33;;;;;;;9.15;5.25;;;-2.90;99.90;;;;;;5040965;28;20044;-53
2023/02/27 06:06:01;;;;;;;11.15;5.40;;;-2.90;99.90;;;;;;5039112;28;20024;-52
2023/02/27 06:08:27;;;;;;;7.28;4.95;;;-3.00;99.90;;;;;;5040522;28;20029;-53
2023/02/27 06:10:54;;;;;;;7.85;4.95;;;-3.00;99.90;;;;;;5038632;28;20076;-52
2023/02/27 06:13:20;;;;;;;12.15;5.28;;;-3.00;99.90;;;;;;5040624;28;20033;-54
2023/02/27 06:15:46;;;;;;;5.20;4.70;;;-3.00;99.90;;;;;;5040791;28;20028;-52
2023/02/27 06:18:13;;;;;;;7.82;5.05;;;-3.00;99.90;;;;;;5041791;28;20460;-53
2023/02/27 06:20:39;;;;;;;9.02;5.25;;;-3.00;99.90;;;;;;5038333;28;20029;-53
2023/02/27 06:23:05;;;;;;;8.82;5.90;;;-2.90;99.90;;;;;;5037547;28;20070;-56
2023/02/27 06:25:31;;;;;;;8.80;4.95;;;-2.90;99.90;;;;;;5040897;28;20029;-52
2023/02/27 06:27:56;;;;;;;6.95;5.43;;;-2.90;99.90;;;;;;5041444;28;20394;-53
2023/02/27 06:30:22;;;;;;;12.45;5.80;;;-2.90;99.90;;;;;;5040599;28;20450;-52
2023/02/27 06:32:47;;;;;;;9.18;6.30;;;-3.00;99.90;;;;;;5039913;28;20048;-52
2023/02/27 06:35:13;;;;;;;6.82;5.82;;;-2.90;99.90;;;;;;5040564;28;20582;-51
2023/02/27 06:37:39;;;;;;;8.38;5.93;;;-2.90;99.90;;;;;;5039005;28;20029;-53
2023/02/27 06:40:10;;;;;;;11.27;6.25;;;-2.90;99.90;;;;;;5039181;28;20171;-56
2023/02/27 06:42:39;;;;;;;12.25;6.00;;;-2.90;99.90;;;;;;5037536;28;20022;-50
2023/02/27 06:45:05;;;;;;;8.57;5.82;;;-2.90;99.90;;;;;;5039731;28;20391;-53
2023/02/27 06:47:31;;;;;;;9.93;6.07;;;-2.90;99.90;;;;;;5038554;28;20031;-54
2023/02/27 06:49:57;;;;;;;8.60;5.82;;;-2.90;99.90;;;;;;5038816;28;20026;-54
2023/02/27 06:52:22;;;;;;;7.97;6.03;;;-2.90;99.90;;;;;;5036872;28;20063;-53
2023/02/27 06:54:48;;;;;;;10.13;5.70;;;-2.90;99.90;;;;;;5038513;28;20108;-55
2023/02/27 06:57:14;;;;;;;10.48;6.32;;;-2.90;99.90;;;;;;5040230;28;20033;-51
2023/02/27 06:59:40;;;;;;;10.85;7.15;;;-2.90;99.90;;;;;;5039105;28;20031;-52
2023/02/27 07:02:06;;;;;;;11.80;7.05;;;-2.80;99.90;;;;;;5038211;28;20022;-56
2023/02/27 07:04:32;;;;;;;10.82;6.68;;;-2.80;99.90;;;;;;5039562;28;20039;-55
2023/02/27 07:06:58;;;;;;;9.98;6.40;;;-2.80;99.90;;;;;;5039276;28;20428;-56
2023/02/27 07:09:24;;;;;;;10.35;6.53;;;-2.70;99.90;;;;;;5038817;28;20069;-57
2023/02/27 07:11:50;;;;;;;8.90;6.63;;;-2.70;99.90;;;;;;5038336;28;20041;-57
2023/02/27 07:14:15;;;;;;;8.98;5.68;;;-2.70;99.90;;;;;;5039382;28;20025;-57
2023/02/27 07:16:41;;;;;;;9.10;6.22;;;-2.60;99.90;;;;;;5040304;28;20076;-55
2023/02/27 07:19:07;;;;;;;9.32;6.03;;;-2.50;99.90;;;;;;5040301;28;20040;-52
2023/02/27 07:21:32;;;;;;;9.82;5.70;;;-2.50;99.90;;;;;;5039804;28;20026;-55
2023/02/27 07:23:58;;;;;;;9.15;6.13;;;-2.40;99.90;;;;;;5039754;28;20109;-56
2023/02/27 07:26:24;;;;;;;9.55;6.78;;;-2.30;99.90;;;;;;5040380;28;20028;-56
2023/02/27 07:28:49;;;;;;;7.05;6.00;;;-2.30;99.90;;;;;;5039984;28;20460;-56
2023/02/27 07:31:15;;;;;;;7.43;5.75;;;-2.20;99.90;;;;;;5038185;28;20311;-55
2023/02/27 07:33:40;;;;;;;13.23;6.43;;;-2.20;99.90;;;;;;5039292;28;20076;-56
2023/02/27 07:36:06;;;;;;;11.82;5.75;;;-2.20;99.90;;;;;;5039441;28;20033;-54
2023/02/27 07:38:32;;;;;;;7.45;6.07;;;-2.10;99.90;;;;;;5038959;28;20696;-57
2023/02/27 07:40:58;;;;;;;7.82;6.05;;;-2.10;99.90;;;;;;5037483;28;20029;-56
2023/02/27 07:43:24;;;;;;;10.57;6.82;;;-2.10;99.90;;;;;;5039719;28;20032;-53
2023/02/27 07:45:50;;;;;;;9.52;6.18;;;-1.90;99.90;;;;;;5039222;28;20025;-56
2023/02/27 07:48:17;;;;;;;9.65;6.65;;;-1.90;99.90;;;;;;5039587;28;20125;-56
2023/02/27 07:50:42;;;;;;;11.35;7.18;;;-1.80;99.90;;;;;;5038343;28;20080;-55
2023/02/27 07:53:08;;;;;;;10.80;6.88;;;-1.80;99.90;;;;;;5038029;28;20056;-56
2023/02/27 07:55:34;;;;;;;11.43;6.82;;;-1.70;99.90;;;;;;5038977;28;20060;-57
2023/02/27 07:58:00;;;;;;;12.93;6.35;;;-1.60;99.90;;;;;;5038352;28;20518;-56
2023/02/27 08:00:25;;;;;;;10.88;5.65;;;-1.50;99.90;;;;;;5037129;28;20487;-56
2023/02/27 08:02:51;;;;;;;12.32;5.97;;;-1.40;99.90;;;;;;5038725;28;20029;-55
2023/02/27 08:05:17;;;;;;;16.48;6.65;;;-1.40;99.90;;;;;;5038823;28;20025;-56
2023/02/27 08:07:42;;;;;;;9.80;6.43;;;-1.30;99.90;;;;;;5038907;28;20479;-57
2023/02/27 08:10:09;;;;;;;12.23;6.97;;;-1.20;99.90;;;;;;5037030;28;20033;-57
2023/02/27 08:12:35;;;;;;;9.40;5.97;;;-1.00;99.90;;;;;;5036169;28;20285;-56
2023/02/27 08:15:00;;;;;;;8.55;6.10;;;-0.90;99.90;;;;;;5037848;28;20403;-56
2023/02/27 08:17:26;;;;;;;12.02;7.00;;;-0.80;99.90;;;;;;5038813;28;20036;-53
2023/02/27 08:19:51;;;;;;;13.25;6.60;;;-0.60;99.90;;;;;;5038443;28;20129;-54
2023/02/27 08:22:17;;;;;;;12.82;6.63;;;-0.50;99.90;;;;;;5038552;28;20445;-56
2023/02/27 08:24:43;;;;;;;10.02;5.88;;;-0.40;99.90;;;;;;5038516;28;20017;-56
2023/02/27 08:27:08;;;;;;;9.98;5.93;;;-0.20;99.90;;;;;;5037936;28;20060;-53
2023/02/27 08:29:34;;;;;;;11.20;7.10;;;-0.10;99.90;;;;;;5038734;28;20383;-53
2023/02/27 08:32:01;;;;;;;10.60;6.15;;;0.20;99.90;;;;;;5038839;28;20064;-56
2023/02/27 08:34:27;;;;;;;10.30;6.53;;;0.40;99.90;;;;;;5035188;28;20036;-54
2023/02/27 08:36:53;;;;;;;9.07;6.18;;;0.60;99.90;;;;;;5036612;28;20025;-54
2023/02/27 08:39:19;;;;;;;13.20;6.75;;;0.80;99.90;;;;;;5038246;28;20513;-55
2023/02/27 08:41:44;;;;;;;10.80;5.68;;;0.90;99.90;;;;;;5037209;28;20069;-57
2023/02/27 08:44:11;;;;;;;9.98;5.53;;;1.10;99.90;;;;;;5038400;28;20111;-54
2023/02/27 08:46:37;;;;;;;11.18;5.03;;;1.20;99.90;;;;;;5035623;28;20305;-55
2023/02/27 08:49:03;;;;;;;6.10;4.32;;;1.40;99.90;;;;;;5038918;28;20025;-57
2023/02/27 08:51:29;;;;;;;8.18;4.43;;;1.60;99.90;;;;;;5036984;28;20032;-56
2023/02/27 08:53:57;;;;;;;7.18;4.63;;;1.70;99.90;;;;;;5036236;28;20093;-55
2023/02/27 08:56:25;;;;;;;8.50;5.13;;;1.80;99.90;;;;;;5036892;28;20021;-58
2023/02/27 08:58:50;;;;;;;8.25;4.82;;;2.00;99.90;;;;;;5036914;28;20573;-56
2023/02/27 09:01:17;;;;;;;7.85;4.45;;;2.10;99.90;;;;;;5038204;28;20163;-56
2023/02/27 09:03:42;;;;;;;6.22;4.18;;;2.20;99.90;;;;;;5038394;28;20447;-57
2023/02/27 09:06:08;;;;;;;6.15;4.32;;;2.30;99.90;;;;;;5036412;28;20026;-58
2023/02/27 09:08:33;;;;;;;7.22;3.72;;;2.50;99.90;;;;;;5039049;28;20036;-54
2023/02/27 09:10:59;;;;;;;9.57;3.83;;;2.60;99.90;;;;;;5042465;28;20021;-57
2023/02/27 09:13:25;;;;;;;3.78;2.70;;;2.70;99.90;;;;;;5042004;28;20518;-56
2023/02/27 09:15:52;;;;;;;6.35;3.03;;;2.80;99.90;;;;;;5040861;28;20021;-57
2023/02/27 09:18:17;;;;;;;4.38;2.40;;;2.90;99.90;;;;;;5041441;28;20402;-57
2023/02/27 09:20:43;;;;;;;6.88;2.92;;;3.10;99.90;;;;;;5040798;28;20021;-56
2023/02/27 09:23:09;;;;;;;8.30;2.85;;;3.20;99.90;;;;;;5042015;28;20100;-57
2023/02/27 09:25:35;;;;;;;4.38;2.75;;;3.30;99.90;;;;;;5041125;28;20019;-58
2023/02/27 09:28:00;;;;;;;3.50;1.70;;;3.40;99.90;;;;;;5042657;28;20108;-58
2023/02/27 09:30:26;;;;;;;4.38;2.10;;;3.40;99.90;;;;;;5041311;28;20027;-58
2023/02/27 09:32:51;;;;;;;3.60;1.98;;;3.40;99.90;;;;;;5041875;28;20134;-59
2023/02/27 09:35:19;;;;;;;8.07;2.42;;;3.40;99.90;;;;;;5036233;28;20037;-58
2023/02/27 09:37:45;;;;;;;7.65;2.67;;;3.40;99.90;;;;;;5037391;28;20033;-59
2023/02/27 09:40:33;;;;;;;6.15;2.42;;;3.50;99.90;;;;;;5041855;28;20479;-55
2023/02/27 09:43:09;;;;;;;4.90;2.63;;;3.60;99.90;;;;;;5040979;28;20017;-58
2023/02/27 09:45:38;;;;;;;4.53;2.67;;;3.60;99.90;;;;;;5040178;28;20033;-56
2023/02/27 09:48:38;;;;;;;5.72;3.28;;;3.60;99.90;;;;;;5039217;28;20156;-58
2023/02/27 09:51:03;;;;;;;8.75;3.60;;;3.70;99.90;;;;;;5055673;28;20033;-58
2023/02/27 09:53:36;;;;;;;12.00;3.75;;;3.70;99.90;;;;;;5042300;28;20432;-56
2023/02/27 09:56:19;;;;;;;7.32;3.15;;;3.80;99.90;;;;;;5039765;28;20033;-57
2023/02/27 09:58:54;;;;;;;4.72;3.55;;;3.80;99.90;;;;;;5041475;28;20029;-60
2023/02/27 10:01:40;;;;;;;10.90;3.30;;;3.90;99.90;;;;;;5040883;28;20029;-59
2023/02/27 10:04:31;;;;;;;7.20;3.20;;;3.90;99.90;;;;;;5040805;28;20467;-57
2023/02/27 10:07:28;;;;;;;8.68;3.55;;;3.90;99.90;;;;;;5039740;28;20037;-59
2023/02/27 10:09:58;;;;;;;6.13;2.83;;;3.80;99.90;;;;;;5039258;28;20022;-55
2023/02/27 10:12:34;;;;;;;3.58;2.60;;;3.90;99.90;;;;;;5041048;28;20021;-57
2023/02/27 10:15:25;;;;;;;6.82;3.05;;;3.90;99.90;;;;;;5039324;28;20385;-56
2023/02/27 10:18:06;;;;;;;7.10;2.88;;;4.00;99.90;;;;;;5040855;28;20067;-61
2023/02/27 10:20:40;;;;;;;5.82;2.78;;;4.00;99.90;;;;;;5039549;28;20025;-58
2023/02/27 10:23:13;;;;;;;6.55;3.05;;;4.00;99.90;;;;;;5040906;28;20511;-53
2023/02/27 10:25:44;;;;;;;6.03;2.30;;;4.10;99.90;;;;;;5039365;28;20427;-56
2023/02/27 10:28:16;;;;;;;5.32;2.45;;;4.10;99.90;;;;;;5038154;28;20017;-55
2023/02/27 10:30:55;;;;;;;5.65;2.95;;;4.00;99.90;;;;;;5040712;28;20033;-56
2023/02/27 10:33:24;;;;;;;6.70;3.40;;;3.90;99.90;;;;;;5040296;28;20029;-55
2023/02/27 10:35:53;;;;;;;11.95;3.10;;;4.00;99.90;;;;;;5040099;28;20025;-56
2023/02/27 10:38:32;;;;;;;5.93;3.35;;;3.90;99.90;;;;;;5038075;28;20028;-58
2023/02/27 10:40:59;;;;;;;8.25;3.17;;;4.00;99.90;;;;;;5039310;28;20109;-58
2023/02/27 10:43:24;;;;;;;8.63;3.80;;;4.10;99.90;;;;;;5040177;28;20041;-54
2023/02/27 10:45:50;;;;;;;5.40;3.42;;;4.20;99.90;;;;;;5038466;28;20048;-57
2023/02/27 10:48:25;;;;;;;7.82;3.88;;;4.30;99.90;;;;;;5038647;28;20391;-59
2023/02/27 10:50:50;;;;;;;9.05;2.70;;;4.30;99.90;;;;;;5039042;28;20103;-56
2023/02/27 10:53:24;;;;;;;4.22;3.05;;;4.30;99.90;;;;;;5039943;28;20027;-58
2023/02/27 10:56:05;;;;;;;8.82;3.63;;;4.30;99.90;;;;;;5039802;28;20021;-57
2023/02/27 10:58:34;;;;;;;5.35;2.92;;;4.30;99.90;;;;;;5038167;28;20292;-57
2023/02/27 11:01:02;;;;;;;5.68;2.78;;;4.30;99.90;;;;;;5036903;28;20087;-55
2023/02/27 11:03:32;;;;;;;5.97;2.85;;;4.30;99.90;;;;;;5039097;28;20025;-56
2023/02/27 11:06:12;;;;;;;4.20;1.83;;;4.40;99.90;;;;;;5039675;28;20021;-59
2023/02/27 11:08:37;;;;;;;5.28;2.40;;;4.40;99.90;;;;;;5039616;28;20033;-58
2023/02/27 11:11:08;;;;;;;6.07;2.30;;;4.50;99.90;;;;;;5039951;28;20033;-54
2023/02/27 11:13:43;;;;;;;4.45;2.08;;;4.40;99.90;;;;;;5036300;28;20040;-57
2023/02/27 11:16:16;;;;;;;6.30;2.60;;;4.40;99.90;;;;;;5040121;28;20046;-57
2023/02/27 11:18:45;;;;;;;3.33;1.92;;;4.40;99.90;;;;;;5039183;28;20083;-58
2023/02/27 11:21:14;;;;;;;6.00;2.05;;;4.50;99.90;;;;;;5039816;28;20079;-56
2023/02/27 11:24:01;;;;;;;4.93;2.53;;;4.50;99.90;;;;;;5035079;28;20104;-60
2023/02/27 11:26:34;;;;;;;6.82;2.25;;;4.60;99.90;;;;;;5037728;28;20021;-59
2023/02/27 11:29:17;;;;;;;7.47;2.60;;;4.60;99.90;;;;;;5038640;28;20337;-58
2023/02/27 11:32:08;;;;;;;6.10;3.10;;;4.60;99.90;;;;;;5037030;28;20107;-58
2023/02/27 11:34:38;;;;;;;5.28;2.38;;;4.60;99.90;;;;;;5037595;28;20125;-58
2023/02/27 11:37:31;;;;;;;4.80;2.40;;;4.70;99.90;;;;;;5037565;28;20451;-56
2023/02/27 11:40:08;;;;;;;3.22;2.20;;;4.80;99.90;;;;;;5028284;28;20411;-60
2023/02/27 11:42:35;;;;;;;4.45;2.00;;;4.80;99.90;;;;;;5036476;28;20029;-61
2023/02/27 11:45:20;;;;;;;4.22;2.03;;;4.80;99.90;;;;;;5040039;28;20028;-61
2023/02/27 11:47:51;;;;;;;4.03;2.08;;;4.80;99.90;;;;;;5038275;28;20020;-60
2023/02/27 11:50:36;;;;;;;6.00;2.10;;;4.90;99.90;;;;;;5038968;28;20028;-59
2023/02/27 11:53:36;;;;;;;3.97;1.65;;;4.90;99.90;;;;;;5038967;28;20029;-62
2023/02/27 11:56:04;;;;;;;2.85;1.10;;;4.90;99.90;;;;;;5038842;28;20037;-61
2023/02/27 11:58:39;;;;;;;4.55;1.63;;;4.90;99.90;;;;;;5038608;28;20025;-60
2023/02/27 12:01:14;;;;;;;2.83;1.50;;;4.90;99.90;;;;;;5037559;28;20128;-59
2023/02/27 12:03:48;;;;;;;3.05;1.75;;;4.90;99.90;;;;;;5037720;28;20026;-57
2023/02/27 12:06:22;;;;;;;3.35;1.58;;;4.90;99.90;;;;;;5037491;28;20116;-60
2023/02/27 12:08:54;;;;;;;3.80;1.70;;;5.00;99.90;;;;;;5038287;28;20109;-59
2023/02/27 12:11:39;;;;;;;4.53;1.80;;;5.10;99.90;;;;;;5038183;28;20033;-58
2023/02/27 12:14:16;;;;;;;2.20;1.48;;;5.20;99.90;;;;;;5038354;28;20029;-57
2023/02/27 12:16:53;;;;;;;3.20;1.30;;;5.20;99.90;;;;;;5038150;28;20055;-59
2023/02/27 12:19:42;;;;;;;2.33;1.45;;;5.30;99.90;;;;;;5038422;28;20095;-60
2023/02/27 12:22:19;;;;;;;3.35;1.30;;;5.30;99.90;;;;;;5036072;28;20039;-60
2023/02/27 12:25:05;;;;;;;4.10;1.45;;;5.30;99.90;;;;;;5036261;28;20033;-61
2023/02/27 12:27:46;;;;;;;4.97;2.00;;;5.30;99.90;;;;;;5039033;28;20052;-59
2023/02/27 12:30:18;;;;;;;4.72;1.85;;;5.30;99.90;;;;;;5036480;28;20060;-55
2023/02/27 12:33:12;;;;;;;2.92;1.75;;;5.30;99.90;;;;;;5038358;28;20026;-58
2023/02/27 12:35:41;;;;;;;5.43;1.77;;;5.20;99.90;;;;;;5036198;28;20119;-59
2023/02/27 12:38:12;;;;;;;2.67;1.60;;;5.20;99.90;;;;;;5036664;28;20043;-55
2023/02/27 12:40:40;;;;;;;3.03;1.63;;;5.20;99.90;;;;;;5037068;28;20033;-57
2023/02/27 12:43:42;;;;;;;2.30;1.17;;;5.30;99.90;;;;;;5037679;28;20025;-58
2023/02/27 12:46:25;;;;;;;3.80;1.60;;;5.40;99.90;;;;;;5037795;28;20029;-58
2023/02/27 12:49:18;;;;;;;4.60;1.35;;;5.40;99.90;;;;;;5053230;28;20040;-61
2023/02/27 12:52:02;;;;;;;4.20;1.65;;;5.50;99.90;;;;;;5038633;28;20112;-59
2023/02/27 12:55:00;;;;;;;2.65;1.00;;;5.50;99.90;;;;;;5037686;28;20323;-60
2023/02/27 12:57:52;;;;;;;3.03;1.95;;;5.60;99.90;;;;;;5038214;28;20060;-61
2023/02/27 13:00:20;;;;;;;2.63;1.50;;;5.80;99.90;;;;;;5037326;28;20494;-60
2023/02/27 13:02:49;;;;;;;4.05;1.55;;;5.80;99.90;;;;;;5034330;28;20028;-61
2023/02/27 13:05:48;;;;;;;4.90;1.30;;;5.70;99.90;;;;;;5037614;28;20023;-60
2023/02/27 13:08:43;;;;;;;3.60;1.75;;;5.70;99.90;;;;;;5036520;28;20091;-60
2023/02/27 13:11:33;;;;;;;2.55;1.85;;;5.80;99.90;;;;;;5035868;28;20459;-59
2023/02/27 13:14:05;;;;;;;6.75;1.80;;;5.80;99.90;;;;;;5036228;28;20033;-60
2023/02/27 13:16:41;;;;;;;3.30;1.60;;;5.70;99.90;;;;;;5037000;28;20057;-57
2023/02/27 13:19:16;;;;;;;4.43;1.60;;;5.60;99.90;;;;;;5035975;28;20045;-59